sensor_id;sensor_type;location;lat;lon;timestamp;pressure;altitude;pressure_sealevel;temperature;humidity
27643;BME280;15053;48.618;10.024;2022-12-18T00:01:39;95198.31;;;-6.41;86.60
27643;BME280;15053;48.618;10.024;2022-12-18T00:04:10;95196.25;;;-6.45;86.83
27643;BME280;15053;48.618;10.024;2022-12-18T00:06:41;95197.69;;;-6.51;86.71
27643;BME280;15053;48.618;10.024;2022-12-18T00:09:09;95198.31;;;-6.57;86.88
27643;BME280;15053;48.618;10.024;2022-12-18T00:11:36;95188.19;;;-6.57;86.73
27643;BME280;15053;48.618;10.024;2022-12-18T00:14:03;95181.69;;;-6.60;86.84
27643;BME280;15053;48.618;10.024;2022-12-18T00:16:29;95188.19;;;-6.57;87.55
27643;BME280;15053;48.618;10.024;2022-12-18T00:18:59;95186.59;;;-6.58;87.22
27643;BME280;15053;48.618;10.024;2022-12-18T00:21:29;95195.47;;;-6.62;87.30
27643;BME280;15053;48.618;10.024;2022-12-18T00:23:57;95193.41;;;-6.67;87.40
27643;BME280;15053;48.618;10.024;2022-12-18T00:26:28;95192.28;;;-6.72;87.52
27643;BME280;15053;48.618;10.024;2022-12-18T00:28:59;95190.56;;;-6.80;87.14
27643;BME280;15053;48.618;10.024;2022-12-18T00:31:29;95192.91;;;-6.78;87.19
27643;BME280;15053;48.618;10.024;2022-12-18T00:33:57;95199.88;;;-6.80;87.80
27643;BME280;15053;48.618;10.024;2022-12-18T00:36:26;95194.50;;;-6.85;87.62
27643;BME280;15053;48.618;10.024;2022-12-18T00:38:54;95210.31;;;-6.91;87.57
27643;BME280;15053;48.618;10.024;2022-12-18T00:41:21;95213.16;;;-6.94;87.46
27643;BME280;15053;48.618;10.024;2022-12-18T00:44:09;95203.19;;;-6.88;88.52
27643;BME280;15053;48.618;10.024;2022-12-18T00:46:36;95197.03;;;-6.85;87.91
27643;BME280;15053;48.618;10.024;2022-12-18T00:49:03;95207.63;;;-6.90;87.61
27643;BME280;15053;48.618;10.024;2022-12-18T00:51:30;95217.56;;;-6.96;87.50
27643;BME280;15053;48.618;10.024;2022-12-18T00:53:56;95213.47;;;-6.97;87.97
27643;BME280;15053;48.618;10.024;2022-12-18T00:56:24;95220.75;;;-6.94;88.22
27643;BME280;15053;48.618;10.024;2022-12-18T00:58:51;95211.59;;;-6.95;88.67
27643;BME280;15053;48.618;10.024;2022-12-18T01:01:18;95217.91;;;-6.91;88.37
27643;BME280;15053;48.618;10.024;2022-12-18T01:03:45;95225.50;;;-6.91;88.61
27643;BME280;15053;48.618;10.024;2022-12-18T01:06:14;95229.13;;;-6.86;88.82
27643;BME280;15053;48.618;10.024;2022-12-18T01:08:41;95224.25;;;-6.79;88.68
27643;BME280;15053;48.618;10.024;2022-12-18T01:11:14;95228.69;;;-6.73;89.32
27643;BME280;15053;48.618;10.024;2022-12-18T01:13:41;95224.56;;;-6.74;88.29
27643;BME280;15053;48.618;10.024;2022-12-18T01:16:08;95226.63;;;-6.78;88.53
27643;BME280;15053;48.618;10.024;2022-12-18T01:18:35;95217.91;;;-6.83;88.53
27643;BME280;15053;48.618;10.024;2022-12-18T01:21:16;95220.75;;;-6.86;88.63
27643;BME280;15053;48.618;10.024;2022-12-18T01:23:43;95218.53;;;-6.89;87.93
27643;BME280;15053;48.618;10.024;2022-12-18T01:26:15;95223.44;;;-6.96;88.44
27643;BME280;15053;48.618;10.024;2022-12-18T01:28:43;95221.22;;;-6.99;88.70
27643;BME280;15053;48.618;10.024;2022-12-18T01:31:30;95228.63;;;-6.97;88.45
27643;BME280;15053;48.618;10.024;2022-12-18T01:33:57;95230.88;;;-6.94;88.25
27643;BME280;15053;48.618;10.024;2022-12-18T01:36:28;95225.81;;;-6.94;88.21
27643;BME280;15053;48.618;10.024;2022-12-18T01:38:56;95235.47;;;-6.98;88.02
27643;BME280;15053;48.618;10.024;2022-12-18T01:41:29;95231.81;;;-7.03;88.29
27643;BME280;15053;48.618;10.024;2022-12-18T01:47:39;95241.91;;;-7.11;88.38
27643;BME280;15053;48.618;10.024;2022-12-18T01:50:24;95252.19;;;-7.13;88.30
27643;BME280;15053;48.618;10.024;2022-12-18T01:52:55;95249.66;;;-7.13;88.13
27643;BME280;15053;48.618;10.024;2022-12-18T01:55:23;95252.34;;;-7.14;88.45
27643;BME280;15053;48.618;10.024;2022-12-18T01:57:56;95250.28;;;-7.11;88.96
27643;BME280;15053;48.618;10.024;2022-12-18T02:00:24;95243.03;;;-7.06;89.02
27643;BME280;15053;48.618;10.024;2022-12-18T02:02:53;95251.75;;;-7.00;89.52
27643;BME280;15053;48.618;10.024;2022-12-18T02:05:34;95246.34;;;-6.97;89.66
27643;BME280;15053;48.618;10.024;2022-12-18T02:08:38;95241.94;;;-6.95;89.48
27643;BME280;15053;48.618;10.024;2022-12-18T02:16:02;95231.81;;;-6.95;89.18
27643;BME280;15053;48.618;10.024;2022-12-18T02:18:34;95244.81;;;-6.90;89.34
27643;BME280;15053;48.618;10.024;2022-12-18T02:21:26;95238.47;;;-6.86;90.05
27643;BME280;15053;48.618;10.024;2022-12-18T02:26:44;95228.84;;;-6.83;90.08
27643;BME280;15053;48.618;10.024;2022-12-18T02:29:24;95225.06;;;-6.79;89.98
27643;BME280;15053;48.618;10.024;2022-12-18T02:31:56;95229.16;;;-6.78;90.27
27643;BME280;15053;48.618;10.024;2022-12-18T02:34:28;95224.25;;;-6.79;89.86
27643;BME280;15053;48.618;10.024;2022-12-18T02:36:58;95231.69;;;-6.78;90.12
27643;BME280;15053;48.618;10.024;2022-12-18T02:39:27;95241.97;;;-6.79;90.03
27643;BME280;15053;48.618;10.024;2022-12-18T02:42:00;95244.50;;;-6.79;90.43
27643;BME280;15053;48.618;10.024;2022-12-18T02:44:35;95248.28;;;-6.83;90.28
27643;BME280;15053;48.618;10.024;2022-12-18T02:47:10;95250.19;;;-6.85;89.85
27643;BME280;15053;48.618;10.024;2022-12-18T02:58:18;95242.59;;;-6.85;90.25
27643;BME280;15053;48.618;10.024;2022-12-18T03:01:01;95230.88;;;-6.86;90.79
27643;BME280;15053;48.618;10.024;2022-12-18T03:03:36;95244.19;;;-6.76;90.39
27643;BME280;15053;48.618;10.024;2022-12-18T03:06:24;95242.91;;;-6.72;90.96
27643;BME280;15053;48.618;10.024;2022-12-18T03:09:04;95248.31;;;-6.67;91.50
27643;BME280;15053;48.618;10.024;2022-12-18T03:11:34;95248.97;;;-6.65;91.32
27643;BME280;15053;48.618;10.024;2022-12-18T03:14:23;95246.44;;;-6.65;91.55
27643;BME280;15053;48.618;10.024;2022-12-18T03:16:54;95252.44;;;-6.58;91.76
27643;BME280;15053;48.618;10.024;2022-12-18T03:19:26;95252.13;;;-6.55;91.40
27643;BME280;15053;48.618;10.024;2022-12-18T03:21:57;95245.16;;;-6.53;91.75
27643;BME280;15053;48.618;10.024;2022-12-18T03:24:33;95249.09;;;-6.50;91.44
27643;BME280;15053;48.618;10.024;2022-12-18T03:27:06;95254.66;;;-6.47;91.13
27643;BME280;15053;48.618;10.024;2022-12-18T03:29:40;95259.72;;;-6.47;91.46
27643;BME280;15053;48.618;10.024;2022-12-18T03:32:16;95250.88;;;-6.43;91.78
27643;BME280;15053;48.618;10.024;2022-12-18T03:34:47;95253.41;;;-6.43;91.30
27643;BME280;15053;48.618;10.024;2022-12-18T03:37:16;95246.56;;;-6.42;91.08
27643;BME280;15053;48.618;10.024;2022-12-18T03:39:43;95248.97;;;-6.41;91.22
27643;BME280;15053;48.618;10.024;2022-12-18T03:45:02;95243.09;;;-6.41;91.38
27643;BME280;15053;48.618;10.024;2022-12-18T03:50:27;95246.13;;;-6.46;91.55
27643;BME280;15053;48.618;10.024;2022-12-18T03:55:33;95243.59;;;-6.46;91.49
27643;BME280;15053;48.618;10.024;2022-12-18T03:58:06;95249.59;;;-6.47;90.90
27643;BME280;15053;48.618;10.024;2022-12-18T04:00:47;95252.75;;;-6.45;91.21
27643;BME280;15053;48.618;10.024;2022-12-18T04:03:17;95240.09;;;-6.45;91.79
27643;BME280;15053;48.618;10.024;2022-12-18T04:05:54;95246.25;;;-6.39;91.51
27643;BME280;15053;48.618;10.024;2022-12-18T04:08:22;95254.50;;;-6.37;91.54
27643;BME280;15053;48.618;10.024;2022-12-18T04:10:59;95264.66;;;-6.37;91.38
27643;BME280;15053;48.618;10.024;2022-12-18T04:13:33;95251.63;;;-6.42;91.42
27643;BME280;15053;48.618;10.024;2022-12-18T04:16:02;95260.03;;;-6.34;91.32
27643;BME280;15053;48.618;10.024;2022-12-18T04:18:29;95253.09;;;-6.32;91.37
27643;BME280;15053;48.618;10.024;2022-12-18T04:20:56;95263.22;;;-6.32;91.47
27643;BME280;15053;48.618;10.024;2022-12-18T04:23:23;95261.63;;;-6.33;91.92
27643;BME280;15053;48.618;10.024;2022-12-18T04:25:52;95258.16;;;-6.32;91.77
27643;BME280;15053;48.618;10.024;2022-12-18T04:28:32;95243.59;;;-6.38;91.04
27643;BME280;15053;48.618;10.024;2022-12-18T04:30:59;95253.09;;;-6.32;91.29
27643;BME280;15053;48.618;10.024;2022-12-18T04:33:26;95250.38;;;-6.30;91.34
27643;BME280;15053;48.618;10.024;2022-12-18T04:35:53;95266.38;;;-6.30;91.25
27643;BME280;15053;48.618;10.024;2022-12-18T04:38:19;95269.72;;;-6.29;91.10
27643;BME280;15053;48.618;10.024;2022-12-18T04:40:52;95267.94;;;-6.29;90.90
27643;BME280;15053;48.618;10.024;2022-12-18T04:43:24;95264.97;;;-6.32;90.76
27643;BME280;15053;48.618;10.024;2022-12-18T04:45:51;95266.69;;;-6.33;91.58
27643;BME280;15053;48.618;10.024;2022-12-18T04:48:17;95269.06;;;-6.31;91.31
27643;BME280;15053;48.618;10.024;2022-12-18T04:50:44;95264.16;;;-6.33;90.81
27643;BME280;15053;48.618;10.024;2022-12-18T04:53:10;95269.84;;;-6.31;90.95
27643;BME280;15053;48.618;10.024;2022-12-18T04:55:37;95258.47;;;-6.35;90.45
27643;BME280;15053;48.618;10.024;2022-12-18T04:58:04;95256.88;;;-6.44;91.15
27643;BME280;15053;48.618;10.024;2022-12-18T05:00:30;95273.31;;;-6.40;90.68
27643;BME280;15053;48.618;10.024;2022-12-18T05:02:56;95287.59;;;-6.39;90.90
27643;BME280;15053;48.618;10.024;2022-12-18T05:05:23;95288.53;;;-6.40;91.40
27643;BME280;15053;48.618;10.024;2022-12-18T05:07:50;95282.53;;;-6.39;91.64
27643;BME280;15053;48.618;10.024;2022-12-18T05:10:16;95284.13;;;-6.38;91.35
27643;BME280;15053;48.618;10.024;2022-12-18T05:12:42;95275.22;;;-6.34;91.67
27643;BME280;15053;48.618;10.024;2022-12-18T05:15:30;95279.19;;;-6.31;91.11
27643;BME280;15053;48.618;10.024;2022-12-18T05:17:58;95280.00;;;-6.31;91.57
27643;BME280;15053;48.618;10.024;2022-12-18T05:20:26;95276.50;;;-6.30;91.47
27643;BME280;15053;48.618;10.024;2022-12-18T05:22:53;95275.22;;;-6.34;91.40
27643;BME280;15053;48.618;10.024;2022-12-18T05:25:20;95283.50;;;-6.32;91.20
27643;BME280;15053;48.618;10.024;2022-12-18T05:27:46;95288.38;;;-6.30;91.14
27643;BME280;15053;48.618;10.024;2022-12-18T05:30:14;95280.78;;;-6.30;91.77
27643;BME280;15053;48.618;10.024;2022-12-18T05:32:40;95289.31;;;-6.31;91.05
27643;BME280;15053;48.618;10.024;2022-12-18T05:35:09;95290.13;;;-6.31;91.47
27643;BME280;15053;48.618;10.024;2022-12-18T05:37:35;95298.69;;;-6.32;91.31
27643;BME280;15053;48.618;10.024;2022-12-18T05:40:08;95300.44;;;-6.32;91.28
27643;BME280;15053;48.618;10.024;2022-12-18T05:42:35;95297.59;;;-6.29;91.31
27643;BME280;15053;48.618;10.024;2022-12-18T05:45:02;95282.84;;;-6.34;91.15
27643;BME280;15053;48.618;10.024;2022-12-18T05:47:28;95291.09;;;-6.32;90.77
27643;BME280;15053;48.618;10.024;2022-12-18T05:49:55;95297.25;;;-6.34;91.53
27643;BME280;15053;48.618;10.024;2022-12-18T05:52:22;95283.50;;;-6.32;91.83
27643;BME280;15053;48.618;10.024;2022-12-18T05:54:49;95276.66;;;-6.31;91.18
27643;BME280;15053;48.618;10.024;2022-12-18T05:57:15;95278.41;;;-6.32;91.17
27643;BME280;15053;48.618;10.024;2022-12-18T05:59:41;95277.94;;;-6.35;91.43
27643;BME280;15053;48.618;10.024;2022-12-18T06:02:08;95283.94;;;-6.36;91.52
27643;BME280;15053;48.618;10.024;2022-12-18T06:04:34;95287.28;;;-6.36;91.96
27643;BME280;15053;48.618;10.024;2022-12-18T06:07:01;95285.69;;;-6.37;91.66
27643;BME280;15053;48.618;10.024;2022-12-18T06:09:29;95289.81;;;-6.36;92.03
27643;BME280;15053;48.618;10.024;2022-12-18T06:11:55;95292.50;;;-6.37;91.09
27643;BME280;15053;48.618;10.024;2022-12-18T06:14:22;95293.44;;;-6.38;92.08
27643;BME280;15053;48.618;10.024;2022-12-18T06:16:50;95295.81;;;-6.37;92.16
27643;BME280;15053;48.618;10.024;2022-12-18T06:19:18;95298.34;;;-6.37;91.76
27643;BME280;15053;48.618;10.024;2022-12-18T06:21:44;95302.47;;;-6.36;92.18
27643;BME280;15053;48.618;10.024;2022-12-18T06:24:11;95302.47;;;-6.36;91.64
27643;BME280;15053;48.618;10.024;2022-12-18T06:26:38;95296.78;;;-6.38;91.85
27643;BME280;15053;48.618;10.024;2022-12-18T06:29:05;95306.75;;;-6.36;92.51
27643;BME280;15053;48.618;10.024;2022-12-18T06:31:32;95310.06;;;-6.36;92.02
27643;BME280;15053;48.618;10.024;2022-12-18T06:34:01;95306.44;;;-6.33;92.32
27643;BME280;15053;48.618;10.024;2022-12-18T06:36:28;95307.22;;;-6.33;92.51
27643;BME280;15053;48.618;10.024;2022-12-18T06:38:56;95313.22;;;-6.34;92.12
27643;BME280;15053;48.618;10.024;2022-12-18T06:41:23;95311.97;;;-6.38;92.48
27643;BME280;15053;48.618;10.024;2022-12-18T06:43:50;95314.34;;;-6.36;92.63
27643;BME280;15053;48.618;10.024;2022-12-18T06:46:23;95318.00;;;-6.31;92.65
27643;BME280;15053;48.618;10.024;2022-12-18T06:48:50;95307.84;;;-6.31;92.39
27643;BME280;15053;48.618;10.024;2022-12-18T06:51:18;95300.25;;;-6.31;93.00
27643;BME280;15053;48.618;10.024;2022-12-18T06:53:45;95310.06;;;-6.28;93.16
27643;BME280;15053;48.618;10.024;2022-12-18T06:56:12;95318.31;;;-6.26;92.95
27643;BME280;15053;48.618;10.024;2022-12-18T06:58:39;95322.91;;;-6.21;93.31
27643;BME280;15053;48.618;10.024;2022-12-18T07:01:08;95318.16;;;-6.16;93.02
27643;BME280;15053;48.618;10.024;2022-12-18T07:03:35;95317.69;;;-6.12;93.33
27643;BME280;15053;48.618;10.024;2022-12-18T07:06:03;95316.88;;;-6.04;93.59
27643;BME280;15053;48.618;10.024;2022-12-18T07:08:30;95328.31;;;-6.00;93.07
27643;BME280;15053;48.618;10.024;2022-12-18T07:10:57;95327.19;;;-5.97;93.83
27643;BME280;15053;48.618;10.024;2022-12-18T07:13:24;95330.22;;;-5.94;93.62
27643;BME280;15053;48.618;10.024;2022-12-18T07:15:51;95325.28;;;-5.95;93.57
27643;BME280;15053;48.618;10.024;2022-12-18T07:18:17;95340.66;;;-5.89;93.07
27643;BME280;15053;48.618;10.024;2022-12-18T07:20:43;95333.84;;;-5.88;93.78
27643;BME280;15053;48.618;10.024;2022-12-18T07:23:11;95340.94;;;-5.84;93.36
27643;BME280;15053;48.618;10.024;2022-12-18T07:25:37;95346.00;;;-5.84;93.97
27643;BME280;15053;48.618;10.024;2022-12-18T07:28:04;95353.31;;;-5.81;93.88
27643;BME280;15053;48.618;10.024;2022-12-18T07:30:31;95363.59;;;-5.74;93.82
27643;BME280;15053;48.618;10.024;2022-12-18T07:32:57;95364.06;;;-5.71;93.70
27643;BME280;15053;48.618;10.024;2022-12-18T07:35:23;95363.28;;;-5.71;93.73
27643;BME280;15053;48.618;10.024;2022-12-18T07:37:51;95369.13;;;-5.79;93.78
27643;BME280;15053;48.618;10.024;2022-12-18T07:40:17;95372.16;;;-5.67;93.46
27643;BME280;15053;48.618;10.024;2022-12-18T07:42:44;95381.03;;;-5.63;93.62
27643;BME280;15053;48.618;10.024;2022-12-18T07:45:10;95373.88;;;-5.68;93.77
27643;BME280;15053;48.618;10.024;2022-12-18T07:47:37;95381.34;;;-5.66;93.55
27643;BME280;15053;48.618;10.024;2022-12-18T07:50:05;95390.69;;;-5.67;93.01
27643;BME280;15053;48.618;10.024;2022-12-18T07:52:32;95388.00;;;-5.65;93.15
27643;BME280;15053;48.618;10.024;2022-12-18T07:54:59;95377.22;;;-5.59;93.67
27643;BME280;15053;48.618;10.024;2022-12-18T07:57:25;95378.50;;;-5.55;93.67
27643;BME280;15053;48.618;10.024;2022-12-18T08:00:12;95382.44;;;-5.53;93.34
27643;BME280;15053;48.618;10.024;2022-12-18T08:02:39;95380.84;;;-5.54;93.24
27643;BME280;15053;48.618;10.024;2022-12-18T08:05:07;95382.59;;;-5.54;93.05
27643;BME280;15053;48.618;10.024;2022-12-18T08:07:34;95387.22;;;-5.50;93.62
27643;BME280;15053;48.618;10.024;2022-12-18T08:10:00;95388.94;;;-5.42;93.77
27643;BME280;15053;48.618;10.024;2022-12-18T08:12:27;95392.59;;;-5.45;93.06
27643;BME280;15053;48.618;10.024;2022-12-18T08:14:53;95389.09;;;-5.44;93.00
27643;BME280;15053;48.618;10.024;2022-12-18T08:17:20;95380.03;;;-5.46;92.42
27643;BME280;15053;48.618;10.024;2022-12-18T08:19:46;95384.81;;;-5.51;92.36
27643;BME280;15053;48.618;10.024;2022-12-18T08:22:13;95382.44;;;-5.53;92.78
27643;BME280;15053;48.618;10.024;2022-12-18T08:24:39;95385.28;;;-5.48;93.21
27643;BME280;15053;48.618;10.024;2022-12-18T08:27:06;95382.44;;;-5.45;93.52
27643;BME280;15053;48.618;10.024;2022-12-18T08:29:52;95379.09;;;-5.37;93.24
27643;BME280;15053;48.618;10.024;2022-12-18T08:32:18;95384.47;;;-5.32;93.17
27643;BME280;15053;48.618;10.024;2022-12-18T08:34:45;95371.97;;;-5.33;92.85
27643;BME280;15053;48.618;10.024;2022-12-18T08:37:11;95382.91;;;-5.33;92.16
27643;BME280;15053;48.618;10.024;2022-12-18T08:39:38;95374.63;;;-5.35;92.35
27643;BME280;15053;48.618;10.024;2022-12-18T08:42:05;95370.34;;;-5.34;92.84
27643;BME280;15053;48.618;10.024;2022-12-18T08:44:50;95369.72;;;-5.28;92.35
27643;BME280;15053;48.618;10.024;2022-12-18T08:47:16;95373.19;;;-5.21;92.96
27643;BME280;15053;48.618;10.024;2022-12-18T08:49:43;95368.25;;;-5.15;92.78
27643;BME280;15053;48.618;10.024;2022-12-18T08:52:09;95372.38;;;-5.14;92.46
27643;BME280;15053;48.618;10.024;2022-12-18T08:54:35;95385.38;;;-5.09;92.25
27643;BME280;15053;48.618;10.024;2022-12-18T08:57:02;95382.19;;;-5.11;92.60
27643;BME280;15053;48.618;10.024;2022-12-18T08:59:28;95385.38;;;-5.09;92.28
27643;BME280;15053;48.618;10.024;2022-12-18T09:01:55;95384.41;;;-5.08;92.64
27643;BME280;15053;48.618;10.024;2022-12-18T09:04:22;95386.63;;;-5.05;91.89
27643;BME280;15053;48.618;10.024;2022-12-18T09:06:49;95386.63;;;-5.05;91.60
27643;BME280;15053;48.618;10.024;2022-12-18T09:09:15;95375.53;;;-5.04;92.31
27643;BME280;15053;48.618;10.024;2022-12-18T09:11:42;95381.41;;;-5.03;92.06
27643;BME280;15053;48.618;10.024;2022-12-18T09:14:09;95378.06;;;-5.04;91.59
27643;BME280;15053;48.618;10.024;2022-12-18T09:16:35;95370.28;;;-5.02;92.10
27643;BME280;15053;48.618;10.024;2022-12-18T09:19:03;95377.41;;;-4.98;91.61
27643;BME280;15053;48.618;10.024;2022-12-18T09:21:32;95373.91;;;-4.97;91.93
27643;BME280;15053;48.618;10.024;2022-12-18T09:24:03;95367.59;;;-5.01;91.63
27643;BME280;15053;48.618;10.024;2022-12-18T09:26:34;95380.25;;;-4.93;91.60
27643;BME280;15053;48.618;10.024;2022-12-18T09:29:02;95374.84;;;-4.90;91.93
27643;BME280;15053;48.618;10.024;2022-12-18T09:31:28;95376.09;;;-4.86;91.61
27643;BME280;15053;48.618;10.024;2022-12-18T09:33:55;95371.47;;;-4.82;92.01
27643;BME280;15053;48.618;10.024;2022-12-18T09:36:22;95364.94;;;-4.77;91.64
27643;BME280;15053;48.618;10.024;2022-12-18T09:38:49;95369.69;;;-4.73;91.91
27643;BME280;15053;48.618;10.024;2022-12-18T09:41:39;95365.09;;;-4.70;92.10
27643;BME280;15053;48.618;10.024;2022-12-18T09:44:30;95359.78;;;-4.60;91.82
27643;BME280;15053;48.618;10.024;2022-12-18T09:47:12;95363.75;;;-4.58;92.16
27643;BME280;15053;48.618;10.024;2022-12-18T09:49:43;95362.28;;;-4.52;91.44
27643;BME280;15053;48.618;10.024;2022-12-18T09:52:15;95370.09;;;-4.54;91.49
27643;BME280;15053;48.618;10.024;2022-12-18T09:54:50;95367.22;;;-4.51;91.99
27643;BME280;15053;48.618;10.024;2022-12-18T09:57:22;95370.34;;;-4.41;91.87
27643;BME280;15053;48.618;10.024;2022-12-18T09:59:59;95370.75;;;-4.29;91.90
27643;BME280;15053;48.618;10.024;2022-12-18T10:02:36;95357.38;;;-4.23;91.41
27643;BME280;15053;48.618;10.024;2022-12-18T10:05:10;95369.44;;;-4.25;91.37
27643;BME280;15053;48.618;10.024;2022-12-18T10:10:35;95367.53;;;-4.23;91.52
27643;BME280;15053;48.618;10.024;2022-12-18T10:13:23;95367.31;;;-4.13;91.13
27643;BME280;15053;48.618;10.024;2022-12-18T10:19:13;95349.13;;;-4.02;90.69
27643;BME280;15053;48.618;10.024;2022-12-18T10:28:16;95345.50;;;-4.08;89.99
27643;BME280;15053;48.618;10.024;2022-12-18T10:30:43;95341.22;;;-4.07;90.08
27643;BME280;15053;48.618;10.024;2022-12-18T10:33:13;95351.19;;;-4.06;90.10
27643;BME280;15053;48.618;10.024;2022-12-18T10:35:42;95343.50;;;-3.98;90.29
27643;BME280;15053;48.618;10.024;2022-12-18T10:43:35;95346.91;;;-3.83;90.05
27643;BME280;15053;48.618;10.024;2022-12-18T10:51:23;95347.28;;;-3.71;90.00
27643;BME280;15053;48.618;10.024;2022-12-18T10:53:53;95348.06;;;-3.71;89.92
27643;BME280;15053;48.618;10.024;2022-12-18T10:56:21;95351.66;;;-3.65;89.75
27643;BME280;15053;48.618;10.024;2022-12-18T10:59:01;95350.84;;;-3.58;89.88
27643;BME280;15053;48.618;10.024;2022-12-18T11:04:16;95357.41;;;-3.48;89.45
27643;BME280;15053;48.618;10.024;2022-12-18T11:07:02;95365.50;;;-3.45;89.17
27643;BME280;15053;48.618;10.024;2022-12-18T11:09:39;95360.53;;;-3.38;89.30
27643;BME280;15053;48.618;10.024;2022-12-18T11:12:17;95375.59;;;-3.37;89.24
27643;BME280;15053;48.618;10.024;2022-12-18T11:14:48;95364.19;;;-3.41;88.67
27643;BME280;15053;48.618;10.024;2022-12-18T11:17:20;95360.25;;;-3.43;88.42
27643;BME280;15053;48.618;10.024;2022-12-18T11:19:53;95368.38;;;-3.48;88.40
27643;BME280;15053;48.618;10.024;2022-12-18T11:22:23;95363.22;;;-3.54;88.27
27643;BME280;15053;48.618;10.024;2022-12-18T11:28:05;95356.53;;;-3.55;88.25
27643;BME280;15053;48.618;10.024;2022-12-18T11:33:37;95346.25;;;-3.62;88.39
27643;BME280;15053;48.618;10.024;2022-12-18T11:36:24;95347.84;;;-3.61;88.42
27643;BME280;15053;48.618;10.024;2022-12-18T11:38:53;95349.50;;;-3.53;88.65
27643;BME280;15053;48.618;10.024;2022-12-18T11:41:29;95347.69;;;-3.45;88.54
27643;BME280;15053;48.618;10.024;2022-12-18T11:44:23;95344.78;;;-3.42;88.51
27643;BME280;15053;48.618;10.024;2022-12-18T11:47:05;95330.31;;;-3.41;89.10
27643;BME280;15053;48.618;10.024;2022-12-18T11:49:35;95325.84;;;-3.39;88.26
27643;BME280;15053;48.618;10.024;2022-12-18T11:52:22;95330.03;;;-3.46;88.01
27643;BME280;15053;48.618;10.024;2022-12-18T11:54:51;95333.72;;;-3.49;88.06
27643;BME280;15053;48.618;10.024;2022-12-18T11:57:34;95335.47;;;-3.49;88.36
27643;BME280;15053;48.618;10.024;2022-12-18T12:00:20;95336.34;;;-3.42;88.47
27643;BME280;15053;48.618;10.024;2022-12-18T12:05:42;95315.31;;;-3.36;88.38
27643;BME280;15053;48.618;10.024;2022-12-18T12:08:27;95326.63;;;-3.39;87.98
27643;BME280;15053;48.618;10.024;2022-12-18T12:16:57;95303.00;;;-3.47;87.84
27643;BME280;15053;48.618;10.024;2022-12-18T12:19:34;95299.22;;;-3.51;88.12
27643;BME280;15053;48.618;10.024;2022-12-18T12:22:24;95297.13;;;-3.63;87.98
27643;BME280;15053;48.618;10.024;2022-12-18T12:27:39;95301.00;;;-3.52;87.88
27643;BME280;15053;48.618;10.024;2022-12-18T12:30:21;95293.00;;;-3.49;88.28
27643;BME280;15053;48.618;10.024;2022-12-18T12:35:52;95282.19;;;-3.51;87.95
27643;BME280;15053;48.618;10.024;2022-12-18T12:38:27;95282.13;;;-3.58;88.02
27643;BME280;15053;48.618;10.024;2022-12-18T12:41:06;95283.75;;;-3.65;87.76
27643;BME280;15053;48.618;10.024;2022-12-18T12:43:57;95288.84;;;-3.65;88.01
27643;BME280;15053;48.618;10.024;2022-12-18T12:46:26;95291.94;;;-3.69;87.88
27643;BME280;15053;48.618;10.024;2022-12-18T12:49:02;95287.00;;;-3.71;88.28
27643;BME280;15053;48.618;10.024;2022-12-18T12:51:41;95280.34;;;-3.72;88.32
27643;BME280;15053;48.618;10.024;2022-12-18T12:54:20;95285.44;;;-3.72;88.25
27643;BME280;15053;48.618;10.024;2022-12-18T12:59:52;95285.78;;;-3.75;88.44
27643;BME280;15053;48.618;10.024;2022-12-18T13:02:51;95295.94;;;-3.75;88.72
27643;BME280;15053;48.618;10.024;2022-12-18T13:05:30;95293.22;;;-3.73;88.96
27643;BME280;15053;48.618;10.024;2022-12-18T13:08:06;95296.81;;;-3.68;88.97
27643;BME280;15053;48.618;10.024;2022-12-18T13:10:39;95297.38;;;-3.58;89.16
27643;BME280;15053;48.618;10.024;2022-12-18T13:13:08;95291.94;;;-3.54;88.96
27643;BME280;15053;48.618;10.024;2022-12-18T13:16:04;95294.50;;;-3.54;89.05
27643;BME280;15053;48.618;10.024;2022-12-18T13:18:32;95293.84;;;-3.57;88.85
27643;BME280;15053;48.618;10.024;2022-12-18T13:23:34;95289.84;;;-3.66;88.46
27643;BME280;15053;48.618;10.024;2022-12-18T13:28:53;95298.94;;;-3.71;88.96
27643;BME280;15053;48.618;10.024;2022-12-18T13:36:55;95303.66;;;-3.83;88.89
27643;BME280;15053;48.618;10.024;2022-12-18T13:39:24;95297.97;;;-3.85;88.61
27643;BME280;15053;48.618;10.024;2022-12-18T13:44:37;95296.09;;;-3.91;88.61
27643;BME280;15053;48.618;10.024;2022-12-18T13:47:28;95304.06;;;-3.94;88.65
27643;BME280;15053;48.618;10.024;2022-12-18T13:49:58;95296.97;;;-3.98;88.95
27643;BME280;15053;48.618;10.024;2022-12-18T13:52:27;95297.47;;;-4.03;88.62
27643;BME280;15053;48.618;10.024;2022-12-18T13:54:56;95292.44;;;-4.11;88.84
27643;BME280;15053;48.618;10.024;2022-12-18T13:57:37;95291.38;;;-4.17;88.88
27643;BME280;15053;48.618;10.024;2022-12-18T14:00:26;95288.31;;;-4.12;89.26
27643;BME280;15053;48.618;10.024;2022-12-18T14:02:55;95284.00;;;-4.11;89.23
27643;BME280;15053;48.618;10.024;2022-12-18T14:05:24;95285.16;;;-4.14;89.24
27643;BME280;15053;48.618;10.024;2022-12-18T14:07:52;95276.63;;;-4.21;89.31
27643;BME280;15053;48.618;10.024;2022-12-18T14:10:20;95282.66;;;-4.22;89.65
27643;BME280;15053;48.618;10.024;2022-12-18T14:13:09;95286.81;;;-4.21;89.69
27643;BME280;15053;48.618;10.024;2022-12-18T14:15:42;95280.31;;;-4.24;89.60
27643;BME280;15053;48.618;10.024;2022-12-18T14:20:54;95296.56;;;-4.10;89.92
27643;BME280;15053;48.618;10.024;2022-12-18T14:23:31;95297.00;;;-4.06;89.95
27643;BME280;15053;48.618;10.024;2022-12-18T14:25:58;95291.91;;;-4.06;90.23
27643;BME280;15053;48.618;10.024;2022-12-18T14:28:31;95285.16;;;-4.14;89.59
27643;BME280;15053;48.618;10.024;2022-12-18T14:30:58;95290.22;;;-4.14;89.72
27643;BME280;15053;48.618;10.024;2022-12-18T14:33:26;95278.59;;;-4.31;89.81
27643;BME280;15053;48.618;10.024;2022-12-18T14:38:23;95304.59;;;-4.21;89.89
27643;BME280;15053;48.618;10.024;2022-12-18T14:40:57;95297.47;;;-4.26;89.84
27643;BME280;15053;48.618;10.024;2022-12-18T14:43:24;95301.13;;;-4.28;89.94
27643;BME280;15053;48.618;10.024;2022-12-18T14:45:51;95295.78;;;-4.33;90.13
27643;BME280;15053;48.618;10.024;2022-12-18T14:48:30;95309.47;;;-4.34;90.19